createdAt,value
2023-04-21T00:00:31.850Z,6.277777777777828
2023-04-21T00:01:31.719Z,6.277777777777828
2023-04-21T00:02:33.405Z,6.277777777777828
2023-04-21T00:03:31.957Z,6.222222222222285
2023-04-21T00:04:31.983Z,6.222222222222285
2023-04-21T00:05:31.919Z,6.222222222222285
2023-04-21T00:06:31.805Z,6.222222222222285
2023-04-21T00:07:31.828Z,6.111111111111143
2023-04-21T00:08:31.764Z,6.111111111111143
2023-04-21T00:09:31.685Z,6.111111111111143
2023-04-21T00:10:31.787Z,6.111111111111143
2023-04-21T00:11:31.870Z,6.111111111111143
2023-04-21T00:12:31.825Z,6.111111111111143
2023-04-21T00:13:31.659Z,6.222222222222285
2023-04-21T00:14:31.809Z,6.222222222222285
2023-04-21T00:15:31.822Z,6.222222222222285
2023-04-21T00:16:32.021Z,6.111111111111143
2023-04-21T00:17:31.718Z,6.111111111111143
2023-04-21T00:18:31.811Z,6.111111111111143
2023-04-21T00:19:31.797Z,6.111111111111143
2023-04-21T00:20:31.824Z,6.111111111111143
2023-04-21T00:21:31.609Z,6.111111111111143
2023-04-21T00:22:31.842Z,6.111111111111143
2023-04-21T00:23:31.826Z,6.111111111111143
2023-04-21T00:24:31.777Z,6.111111111111143
2023-04-21T00:25:31.625Z,6.111111111111143
2023-04-21T00:26:31.858Z,6.111111111111143
2023-04-21T00:27:31.852Z,6.000000000000057
2023-04-21T00:28:31.789Z,6.000000000000057
2023-04-21T00:29:31.695Z,6.000000000000057
2023-04-21T00:30:31.788Z,6.000000000000057
2023-04-21T00:31:31.883Z,6.000000000000057
2023-04-21T00:32:31.862Z,5.888888888888971
2023-04-21T00:33:31.689Z,5.888888888888971
2023-04-21T00:34:31.903Z,5.888888888888971
2023-04-21T00:35:31.820Z,5.888888888888971
2023-04-21T00:36:31.807Z,5.777777777777828
2023-04-21T00:37:31.686Z,5.777777777777828
2023-04-21T00:38:31.811Z,5.777777777777828
2023-04-21T00:39:31.824Z,5.777777777777828
2023-04-21T00:40:31.783Z,5.777777777777828
2023-04-21T00:41:31.624Z,5.722222222222285
2023-04-21T00:42:31.803Z,5.722222222222285
2023-04-21T00:43:31.813Z,5.722222222222285
2023-04-21T00:44:31.790Z,5.722222222222285
2023-04-21T00:45:31.675Z,5.722222222222285
2023-04-21T00:46:31.867Z,5.722222222222285
2023-04-21T00:47:31.853Z,5.722222222222285
2023-04-21T00:48:31.836Z,5.722222222222285
2023-04-21T00:49:31.669Z,5.722222222222285
2023-04-21T00:50:31.762Z,5.722222222222285
2023-04-21T00:51:31.901Z,5.722222222222285
2023-04-21T00:52:31.797Z,5.722222222222285
2023-04-21T00:53:31.626Z,5.722222222222285
2023-04-21T00:54:31.775Z,5.722222222222285
2023-04-21T00:55:31.829Z,5.722222222222285
2023-04-21T00:56:31.769Z,5.722222222222285
2023-04-21T00:57:31.616Z,5.722222222222285
2023-04-21T00:58:31.780Z,5.722222222222285
2023-04-21T00:59:31.871Z,5.722222222222285
2023-04-21T01:00:31.874Z,5.611111111111143
2023-04-21T01:01:31.684Z,5.611111111111143
2023-04-21T01:02:31.992Z,5.611111111111143
2023-04-21T01:03:32.050Z,5.611111111111143
2023-04-21T01:04:31.790Z,5.611111111111143
2023-04-21T01:05:31.650Z,5.611111111111143
2023-04-21T01:06:31.810Z,5.611111111111143
2023-04-21T01:07:31.824Z,5.611111111111143
2023-04-21T01:08:31.801Z,5.611111111111143
2023-04-21T01:09:31.641Z,5.611111111111143
2023-04-21T01:10:31.800Z,5.611111111111143
2023-04-21T01:11:31.841Z,5.611111111111143
2023-04-21T01:12:31.852Z,5.611111111111143
2023-04-21T01:13:31.614Z,5.611111111111143
2023-04-21T01:14:31.825Z,5.611111111111143
2023-04-21T01:15:31.852Z,5.611111111111143
2023-04-21T01:16:31.832Z,5.611111111111143
2023-04-21T01:17:31.655Z,5.611111111111143
2023-04-21T01:18:31.780Z,5.611111111111143
2023-04-21T01:19:31.799Z,5.611111111111143
2023-04-21T01:20:31.847Z,5.611111111111143
2023-04-21T01:21:31.643Z,5.611111111111143
2023-04-21T01:22:31.826Z,5.500000000000057
2023-04-21T01:23:31.831Z,5.500000000000057
2023-04-21T01:24:31.805Z,5.500000000000057
2023-04-21T01:25:31.739Z,5.500000000000057
2023-04-21T01:26:31.804Z,5.500000000000057
2023-04-21T01:27:31.783Z,5.500000000000057
2023-04-21T01:28:31.804Z,5.500000000000057
2023-04-21T01:29:31.592Z,5.388888888888914
2023-04-21T01:30:31.778Z,5.388888888888914
2023-04-21T01:31:31.882Z,5.388888888888914
2023-04-21T01:32:32.048Z,5.388888888888914
2023-04-21T01:33:31.613Z,5.388888888888914
2023-04-21T01:34:31.859Z,5.388888888888914
2023-04-21T01:35:31.790Z,5.277777777777828
2023-04-21T01:36:31.842Z,5.277777777777828
2023-04-21T01:37:31.592Z,5.277777777777828
2023-04-21T01:38:31.818Z,5.277777777777828
2023-04-21T01:39:31.783Z,5.277777777777828
2023-04-21T01:40:32.035Z,5.277777777777828
2023-04-21T01:41:31.720Z,5.2222222222222285
2023-04-21T01:42:31.980Z,5.2222222222222285
2023-04-21T01:43:31.971Z,5.2222222222222285
2023-04-21T01:44:31.960Z,5.2222222222222285
2023-04-21T01:45:31.724Z,5.2222222222222285
2023-04-21T01:46:31.995Z,5.111111111111143
2023-04-21T01:47:32.007Z,5.111111111111143
2023-04-21T01:48:31.921Z,5.111111111111143
2023-04-21T01:49:31.764Z,5.111111111111143
2023-04-21T01:50:31.907Z,5.111111111111143
2023-04-21T01:51:31.992Z,5.111111111111143
2023-04-21T01:52:31.937Z,5.111111111111143
2023-04-21T01:53:31.708Z,5.111111111111143
2023-04-21T01:54:31.959Z,5.000000000000057
2023-04-21T01:55:31.901Z,5.000000000000057
2023-04-21T01:56:31.935Z,5.000000000000057
2023-04-21T01:57:31.717Z,5.000000000000057
2023-04-21T01:58:31.933Z,5.000000000000057
2023-04-21T01:59:31.792Z,5.000000000000057
2023-04-21T02:00:31.860Z,4.888888888888914
2023-04-21T02:01:31.615Z,4.888888888888914
2023-04-21T02:02:31.974Z,4.888888888888914
2023-04-21T02:03:31.959Z,4.888888888888914
2023-04-21T02:04:32.152Z,4.888888888888914
2023-04-21T02:05:31.614Z,4.888888888888914
2023-04-21T02:06:31.789Z,4.888888888888914
2023-04-21T02:07:31.817Z,4.888888888888914
2023-04-21T02:08:31.849Z,4.888888888888914
2023-04-21T02:09:31.591Z,4.888888888888914
2023-04-21T02:10:31.796Z,4.888888888888914
2023-04-21T02:11:31.811Z,4.888888888888914
2023-04-21T02:12:31.826Z,4.888888888888914
2023-04-21T02:13:31.577Z,4.888888888888914
2023-04-21T02:14:31.852Z,4.777777777777828
2023-04-21T02:15:31.813Z,4.777777777777828
2023-04-21T02:16:31.862Z,4.777777777777828
2023-04-21T02:17:31.624Z,4.777777777777828
2023-04-21T02:18:31.917Z,4.777777777777828
2023-04-21T02:19:31.783Z,4.777777777777828
2023-04-21T02:20:31.825Z,4.777777777777828
2023-04-21T02:21:31.589Z,4.777777777777828
2023-04-21T02:22:31.828Z,4.777777777777828
2023-04-21T02:23:31.758Z,4.777777777777828
2023-04-21T02:24:31.752Z,4.777777777777828
2023-04-21T02:25:31.563Z,4.777777777777828
2023-04-21T02:26:31.792Z,4.777777777777828
2023-04-21T02:27:31.797Z,4.777777777777828
2023-04-21T02:28:31.803Z,4.777777777777828
2023-04-21T02:29:31.571Z,4.777777777777828
2023-04-21T02:30:31.795Z,4.777777777777828
2023-04-21T02:31:32.604Z,4.777777777777828
2023-04-21T02:32:31.891Z,4.777777777777828
2023-04-21T02:33:31.588Z,4.777777777777828
2023-04-21T02:34:31.793Z,4.777777777777828
2023-04-21T02:35:31.764Z,4.777777777777828
2023-04-21T02:36:31.788Z,4.777777777777828
2023-04-21T02:37:31.591Z,4.777777777777828
2023-04-21T02:38:31.825Z,4.888888888888914
2023-04-21T02:39:31.817Z,4.888888888888914
2023-04-21T02:40:31.838Z,4.888888888888914
2023-04-21T02:41:31.569Z,4.888888888888914
2023-04-21T02:42:31.786Z,4.888888888888914
2023-04-21T02:43:31.790Z,4.777777777777828
2023-04-21T02:44:31.803Z,4.777777777777828
2023-04-21T02:45:31.576Z,4.888888888888914
2023-04-21T02:46:31.820Z,4.888888888888914
2023-04-21T02:47:31.834Z,4.888888888888914
2023-04-21T02:48:31.866Z,4.888888888888914
2023-04-21T02:49:31.546Z,4.777777777777828
2023-04-21T02:50:31.782Z,4.777777777777828
2023-04-21T02:51:31.815Z,4.777777777777828
2023-04-21T02:52:31.790Z,4.777777777777828
2023-04-21T02:53:31.596Z,4.888888888888914
2023-04-21T02:54:31.795Z,4.888888888888914
2023-04-21T02:55:31.795Z,4.888888888888914
2023-04-21T02:56:31.800Z,4.777777777777828
2023-04-21T02:57:31.540Z,4.777777777777828
2023-04-21T02:58:31.777Z,4.777777777777828
2023-04-21T02:59:31.807Z,4.777777777777828
2023-04-21T03:00:31.780Z,4.777777777777828
2023-04-21T03:01:31.525Z,4.777777777777828
2023-04-21T03:02:31.912Z,4.777777777777828
2023-04-21T03:03:32.052Z,4.777777777777828
2023-04-21T03:04:31.970Z,4.777777777777828
2023-04-21T03:05:31.541Z,4.777777777777828
2023-04-21T03:06:31.789Z,4.777777777777828
2023-04-21T03:07:31.804Z,4.722222222222285
2023-04-21T03:08:31.775Z,4.722222222222285
2023-04-21T03:09:31.567Z,4.722222222222285
2023-04-21T03:10:31.897Z,4.777777777777828
2023-04-21T03:11:31.802Z,4.777777777777828
2023-04-21T03:12:31.794Z,4.777777777777828
2023-04-21T03:13:31.659Z,4.777777777777828
2023-04-21T03:14:31.793Z,4.888888888888914
2023-04-21T03:15:31.803Z,4.888888888888914
2023-04-21T03:16:31.914Z,4.888888888888914
2023-04-21T03:17:33.212Z,4.888888888888914
2023-04-21T03:18:31.826Z,4.888888888888914
2023-04-21T03:19:31.832Z,4.888888888888914
2023-04-21T03:20:31.793Z,4.888888888888914
2023-04-21T03:21:31.592Z,5.000000000000057
2023-04-21T03:22:31.784Z,5.000000000000057
2023-04-21T03:23:31.925Z,5.000000000000057
2023-04-21T03:24:31.741Z,5.000000000000057
2023-04-21T03:25:31.648Z,5.111111111111143
2023-04-21T03:26:31.901Z,5.111111111111143
2023-04-21T03:27:31.816Z,5.111111111111143
2023-04-21T03:28:31.934Z,5.111111111111143
2023-04-21T03:29:31.570Z,5.111111111111143
2023-04-21T03:30:31.847Z,5.111111111111143
2023-04-21T03:31:31.846Z,5.111111111111143
2023-04-21T03:32:31.866Z,5.111111111111143
2023-04-21T03:33:31.575Z,5.111111111111143
2023-04-21T03:34:31.928Z,5.111111111111143
2023-04-21T03:35:31.957Z,5.111111111111143
2023-04-21T03:36:31.791Z,5.111111111111143
2023-04-21T03:37:31.468Z,5.111111111111143
2023-04-21T03:38:31.783Z,5.111111111111143
2023-04-21T03:39:31.789Z,5.111111111111143
2023-04-21T03:40:31.890Z,5.111111111111143
2023-04-21T03:41:31.644Z,5.111111111111143
2023-04-21T03:42:31.911Z,5.000000000000057
2023-04-21T03:43:31.967Z,5.000000000000057
2023-04-21T03:44:31.837Z,5.000000000000057
2023-04-21T03:45:31.772Z,5.000000000000057
2023-04-21T03:46:32.083Z,5.000000000000057
2023-04-21T03:47:31.989Z,5.000000000000057
2023-04-21T03:48:31.928Z,5.000000000000057
2023-04-21T03:49:31.497Z,5.000000000000057
2023-04-21T03:50:31.958Z,5.000000000000057
2023-04-21T03:51:31.809Z,5.000000000000057
2023-04-21T03:52:31.804Z,5.000000000000057
2023-04-21T03:53:31.470Z,5.000000000000057
2023-04-21T03:54:31.796Z,5.000000000000057
2023-04-21T03:55:31.835Z,5.000000000000057
2023-04-21T03:56:31.802Z,4.888888888888914
2023-04-21T03:57:31.518Z,4.888888888888914
2023-04-21T03:58:31.777Z,4.888888888888914
2023-04-21T03:59:31.800Z,4.888888888888914
2023-04-21T04:00:31.787Z,4.888888888888914
2023-04-21T04:01:31.490Z,4.888888888888914
2023-04-21T04:02:31.916Z,4.888888888888914
2023-04-21T04:03:31.935Z,4.888888888888914
2023-04-21T04:04:32.044Z,4.777777777777828
2023-04-21T04:05:31.520Z,4.777777777777828
2023-04-21T04:06:31.764Z,4.777777777777828
2023-04-21T04:07:31.785Z,4.777777777777828
2023-04-21T04:08:31.795Z,4.777777777777828
2023-04-21T04:09:31.452Z,4.888888888888914
2023-04-21T04:10:31.776Z,4.888888888888914
2023-04-21T04:11:31.799Z,4.888888888888914
2023-04-21T04:12:31.775Z,4.888888888888914
2023-04-21T04:13:31.465Z,5.000000000000057
2023-04-21T04:14:31.788Z,5.000000000000057
2023-04-21T04:15:31.801Z,5.000000000000057
2023-04-21T04:16:31.855Z,5.111111111111143
2023-04-21T04:17:31.462Z,5.2222222222222285
2023-04-21T04:18:31.787Z,5.2222222222222285
2023-04-21T04:19:31.807Z,5.2222222222222285
2023-04-21T04:20:31.897Z,5.277777777777828
2023-04-21T04:21:31.485Z,5.277777777777828
2023-04-21T04:22:31.785Z,5.277777777777828
2023-04-21T04:23:31.812Z,5.277777777777828
2023-04-21T04:24:31.784Z,5.388888888888914
2023-04-21T04:25:31.534Z,5.388888888888914
2023-04-21T04:26:31.778Z,5.500000000000057
2023-04-21T04:27:32.020Z,5.500000000000057
2023-04-21T04:28:31.789Z,5.611111111111143
2023-04-21T04:29:31.461Z,5.611111111111143
2023-04-21T04:30:31.907Z,5.611111111111143
2023-04-21T04:31:31.873Z,5.722222222222285
2023-04-21T04:32:31.795Z,5.722222222222285
2023-04-21T04:33:31.461Z,5.722222222222285
2023-04-21T04:34:31.758Z,5.722222222222285
2023-04-21T04:35:31.936Z,5.777777777777828
2023-04-21T04:36:31.839Z,5.777777777777828
2023-04-21T04:37:31.415Z,5.888888888888971
2023-04-21T04:38:31.775Z,5.888888888888971
2023-04-21T04:39:31.788Z,6.000000000000057
2023-04-21T04:40:31.787Z,6.000000000000057
2023-04-21T04:41:31.413Z,6.000000000000057
2023-04-21T04:42:31.772Z,6.111111111111143
2023-04-21T04:43:31.818Z,6.111111111111143
2023-04-21T04:44:31.774Z,6.222222222222285
2023-04-21T04:45:31.465Z,6.222222222222285
2023-04-21T04:46:31.796Z,6.277777777777828
2023-04-21T04:47:31.798Z,6.277777777777828
2023-04-21T04:48:31.768Z,6.277777777777828
2023-04-21T04:49:31.511Z,6.388888888888914
2023-04-21T04:50:31.771Z,6.500000000000057
2023-04-21T04:51:31.818Z,6.500000000000057
2023-04-21T04:52:31.806Z,6.611111111111143
2023-04-21T04:53:31.458Z,6.722222222222285
2023-04-21T04:54:31.765Z,6.888888888888914
2023-04-21T04:55:31.792Z,7.222222222222285
2023-04-21T04:56:31.774Z,7.611111111111143
2023-04-21T04:57:31.428Z,7.777777777777828
2023-04-21T04:58:31.790Z,7.777777777777828
2023-04-21T04:59:31.816Z,7.777777777777828
2023-04-21T05:00:31.772Z,7.777777777777828
2023-04-21T05:01:31.455Z,7.777777777777828
2023-04-21T05:02:31.880Z,7.777777777777828
2023-04-21T05:03:31.905Z,7.777777777777828
2023-04-21T05:04:31.926Z,7.777777777777828
2023-04-21T05:05:31.474Z,8.000000000000057
2023-04-21T05:06:31.770Z,8.111111111111143
2023-04-21T05:07:31.798Z,8.277777777777828
2023-04-21T05:08:31.812Z,8.500000000000057
2023-04-21T05:09:31.429Z,8.722222222222285
2023-04-21T05:10:31.759Z,8.888888888888914
2023-04-21T05:11:31.798Z,9.222222222222285
2023-04-21T05:12:31.844Z,9.277777777777828
2023-04-21T05:13:31.394Z,9.500000000000057
2023-04-21T05:14:31.774Z,9.888888888888914
2023-04-21T05:15:31.813Z,9.888888888888914
2023-04-21T05:16:31.867Z,9.888888888888914
2023-04-21T05:17:31.572Z,9.888888888888914
2023-04-21T05:18:31.796Z,9.888888888888914
2023-04-21T05:19:31.813Z,9.888888888888914
2023-04-21T05:20:31.814Z,9.888888888888914
2023-04-21T05:21:31.433Z,9.888888888888914
2023-04-21T05:22:31.786Z,9.888888888888914
2023-04-21T05:23:31.813Z,9.888888888888914
2023-04-21T05:24:31.777Z,9.888888888888914
2023-04-21T05:25:31.433Z,9.777777777777828
2023-04-21T05:26:31.806Z,9.777777777777828
2023-04-21T05:27:31.758Z,9.722222222222285
2023-04-21T05:28:31.895Z,9.611111111111143
2023-04-21T05:29:31.411Z,9.611111111111143
2023-04-21T05:30:31.779Z,9.611111111111143
2023-04-21T05:31:31.792Z,9.722222222222285
2023-04-21T05:32:31.839Z,9.722222222222285
2023-04-21T05:33:31.417Z,9.888888888888914
2023-04-21T05:34:31.774Z,9.888888888888914
2023-04-21T05:35:31.794Z,10.111111111111143
2023-04-21T05:36:31.736Z,10.111111111111143
2023-04-21T05:37:31.393Z,10.111111111111143
2023-04-21T05:38:31.790Z,10.277777777777828
2023-04-21T05:39:31.773Z,10.388888888888914
2023-04-21T05:40:31.768Z,10.500000000000057
2023-04-21T05:41:31.404Z,10.500000000000057
2023-04-21T05:42:31.791Z,10.611111111111143
2023-04-21T05:43:31.935Z,10.722222222222285
2023-04-21T05:44:31.768Z,10.888888888888971
2023-04-21T05:45:31.358Z,11.111111111111143
2023-04-21T05:46:31.821Z,11.111111111111143
2023-04-21T05:47:31.805Z,11.222222222222285
2023-04-21T05:48:31.876Z,11.388888888888971
2023-04-21T05:49:31.344Z,11.388888888888971
2023-04-21T05:50:31.778Z,11.388888888888971
2023-04-21T05:51:31.794Z,11.500000000000057
2023-04-21T05:52:31.845Z,11.722222222222229
2023-04-21T05:53:31.377Z,12.222222222222285
2023-04-21T05:54:31.788Z,12.388888888888914
2023-04-21T05:55:31.767Z,12.388888888888914
2023-04-21T05:56:31.790Z,12.388888888888914
2023-04-21T05:57:31.359Z,12.388888888888914
2023-04-21T05:58:31.798Z,12.611111111111143
2023-04-21T05:59:31.761Z,12.611111111111143
2023-04-21T06:00:31.791Z,12.500000000000057
2023-04-21T06:01:31.301Z,12.500000000000057
2023-04-21T06:02:31.959Z,12.611111111111143
2023-04-21T06:03:32.085Z,12.777777777777828
2023-04-21T06:04:31.980Z,12.888888888888914
2023-04-21T06:05:31.383Z,12.888888888888914
2023-04-21T06:06:31.804Z,12.888888888888914
2023-04-21T06:07:31.780Z,13.222222222222285
2023-04-21T06:08:31.755Z,13.277777777777828
2023-04-21T06:09:31.360Z,13.277777777777828
2023-04-21T06:10:31.883Z,13.277777777777828
2023-04-21T06:11:31.776Z,13.277777777777828
2023-04-21T06:12:31.777Z,13.277777777777828
2023-04-21T06:13:31.298Z,13.277777777777828
2023-04-21T06:14:31.781Z,13.277777777777828
2023-04-21T06:15:31.768Z,13.277777777777828
2023-04-21T06:16:31.830Z,13.277777777777828
2023-04-21T06:17:31.346Z,13.222222222222285
2023-04-21T06:18:31.779Z,13.111111111111143
2023-04-21T06:19:31.807Z,13.000000000000057
2023-04-21T06:20:31.821Z,12.888888888888914
2023-04-21T06:21:31.358Z,12.777777777777828
2023-04-21T06:22:31.844Z,12.722222222222285
2023-04-21T06:23:31.796Z,12.722222222222285
2023-04-21T06:24:31.796Z,12.722222222222285
2023-04-21T06:25:31.412Z,12.500000000000057
2023-04-21T06:26:31.788Z,12.277777777777828
2023-04-21T06:27:31.792Z,12.277777777777828
2023-04-21T06:28:31.854Z,12.388888888888914
2023-04-21T06:29:31.322Z,12.611111111111143
2023-04-21T06:30:31.867Z,12.722222222222285
2023-04-21T06:31:31.844Z,12.777777777777828
2023-04-21T06:32:31.818Z,12.777777777777828
2023-04-21T06:33:31.281Z,12.722222222222285
2023-04-21T06:34:31.814Z,12.611111111111143
2023-04-21T06:35:31.777Z,12.611111111111143
2023-04-21T06:36:31.843Z,12.500000000000057
2023-04-21T06:37:31.310Z,12.500000000000057
2023-04-21T06:38:31.864Z,12.500000000000057
2023-04-21T06:39:31.799Z,12.500000000000057
2023-04-21T06:40:31.822Z,12.388888888888914
2023-04-21T06:41:31.322Z,12.388888888888914
2023-04-21T06:42:31.813Z,12.500000000000057
2023-04-21T06:43:31.817Z,12.611111111111143
2023-04-21T06:44:31.817Z,12.611111111111143
2023-04-21T06:45:31.249Z,12.611111111111143
2023-04-21T06:46:31.888Z,12.722222222222285
2023-04-21T06:47:31.801Z,12.722222222222285
2023-04-21T06:48:31.815Z,12.722222222222285
2023-04-21T06:49:31.257Z,12.777777777777828
2023-04-21T06:50:31.817Z,13.000000000000057
2023-04-21T06:51:31.787Z,13.111111111111143
2023-04-21T06:52:31.817Z,13.111111111111143
2023-04-21T06:53:31.312Z,13.111111111111143
2023-04-21T06:54:31.804Z,13.000000000000057
2023-04-21T06:55:31.779Z,13.000000000000057
2023-04-21T06:56:31.793Z,13.111111111111143
2023-04-21T06:57:31.319Z,13.111111111111143
2023-04-21T06:58:31.911Z,13.111111111111143
2023-04-21T06:59:31.830Z,13.000000000000057
2023-04-21T07:00:31.786Z,12.888888888888914
2023-04-21T07:01:31.437Z,12.888888888888914
2023-04-21T07:02:31.969Z,13.111111111111143
2023-04-21T07:03:31.863Z,13.277777777777828
2023-04-21T07:04:31.870Z,13.500000000000057
2023-04-21T07:05:31.236Z,13.500000000000057
2023-04-21T07:06:31.800Z,13.722222222222285
2023-04-21T07:07:31.813Z,13.777777777777828
2023-04-21T07:08:31.807Z,13.777777777777828
2023-04-21T07:09:31.275Z,13.777777777777828
2023-04-21T07:10:31.784Z,13.888888888888971
2023-04-21T07:11:31.802Z,13.888888888888971
2023-04-21T07:12:31.808Z,13.888888888888971
2023-04-21T07:13:31.254Z,13.888888888888971
2023-04-21T07:14:31.938Z,13.722222222222285
2023-04-21T07:15:31.796Z,13.722222222222285
2023-04-21T07:16:31.857Z,13.722222222222285
2023-04-21T07:17:31.244Z,13.888888888888971
2023-04-21T07:18:31.786Z,13.888888888888971
2023-04-21T07:19:31.794Z,14.000000000000057
2023-04-21T07:20:31.815Z,14.1111111111112
2023-04-21T07:21:31.244Z,14.1111111111112
2023-04-21T07:22:31.792Z,14.222222222222229
2023-04-21T07:23:31.801Z,14.277777777777828
2023-04-21T07:24:31.780Z,14.277777777777828
2023-04-21T07:25:31.253Z,14.222222222222229
2023-04-21T07:26:31.825Z,14.222222222222229
2023-04-21T07:27:31.780Z,14.277777777777828
2023-04-21T07:28:31.858Z,14.277777777777828
2023-04-21T07:29:31.254Z,14.388888888888971
2023-04-21T07:30:31.838Z,14.388888888888971
2023-04-21T07:31:31.821Z,14.388888888888971
2023-04-21T07:32:31.851Z,14.388888888888971
2023-04-21T07:33:31.225Z,14.611111111111143
2023-04-21T07:34:31.775Z,14.611111111111143
2023-04-21T07:35:31.803Z,14.888888888888914
2023-04-21T07:36:31.794Z,15.222222222222285
2023-04-21T07:37:31.184Z,15.222222222222285
2023-04-21T07:38:31.830Z,15.277777777777828
2023-04-21T07:39:31.791Z,15.388888888888914
2023-04-21T07:40:31.775Z,15.388888888888914
2023-04-21T07:41:31.232Z,15.388888888888914
2023-04-21T07:42:31.790Z,15.388888888888914
2023-04-21T07:43:31.788Z,15.388888888888914
2023-04-21T07:44:31.793Z,15.222222222222285
2023-04-21T07:45:31.244Z,15.111111111111143
2023-04-21T07:46:31.828Z,14.777777777777828
2023-04-21T07:47:31.812Z,14.777777777777828
2023-04-21T07:48:31.835Z,15.111111111111143
2023-04-21T07:49:31.160Z,15.500000000000057
2023-04-21T07:50:31.783Z,15.611111111111143
2023-04-21T07:51:31.821Z,15.611111111111143
2023-04-21T07:52:31.778Z,15.388888888888914
2023-04-21T07:53:31.284Z,15.388888888888914
2023-04-21T07:54:32.262Z,15.388888888888914
2023-04-21T07:55:31.798Z,15.500000000000057
2023-04-21T07:56:31.780Z,15.611111111111143
2023-04-21T07:57:31.196Z,15.722222222222285
2023-04-21T07:58:31.816Z,15.888888888888914
2023-04-21T07:59:31.780Z,16.000000000000057
2023-04-21T08:00:31.932Z,16.000000000000057
2023-04-21T08:01:31.229Z,16.000000000000057
2023-04-21T08:02:31.834Z,16.1111111111112
2023-04-21T08:03:31.976Z,16.1111111111112
2023-04-21T08:04:31.958Z,16.27777777777783
2023-04-21T08:05:33.955Z,16.27777777777783
2023-04-21T08:06:31.912Z,16.27777777777783
2023-04-21T08:07:31.825Z,16.27777777777783
2023-04-21T08:08:32.060Z,16.222222222222285
2023-04-21T08:09:31.167Z,16.1111111111112
2023-04-21T08:10:31.831Z,15.888888888888914
2023-04-21T08:11:31.807Z,15.888888888888914
2023-04-21T08:12:31.775Z,15.888888888888914
2023-04-21T08:13:31.197Z,16.222222222222285
2023-04-21T08:14:31.777Z,16.222222222222285
2023-04-21T08:15:31.814Z,16.1111111111112
2023-04-21T08:16:31.849Z,16.222222222222285
2023-04-21T08:17:31.175Z,16.27777777777783
2023-04-21T08:18:31.806Z,16.500000000000057
2023-04-21T08:19:31.795Z,16.6111111111112
2023-04-21T08:20:31.800Z,16.88888888888897
2023-04-21T08:21:31.464Z,17.111111111111143
2023-04-21T08:22:31.866Z,17.222222222222285
2023-04-21T08:24:31.783Z,17.500000000000057
2023-04-21T08:25:31.122Z,17.500000000000057
2023-04-21T08:26:31.777Z,17.500000000000057
2023-04-21T08:27:31.781Z,17.388888888888914
2023-04-21T08:28:31.769Z,17.388888888888914
2023-04-21T08:29:31.187Z,17.388888888888914
2023-04-21T08:30:31.757Z,17.388888888888914
2023-04-21T08:31:31.874Z,17.222222222222285
2023-04-21T08:32:31.841Z,16.88888888888897
2023-04-21T08:33:31.152Z,16.77777777777783
2023-04-21T08:34:31.815Z,16.88888888888897
2023-04-21T08:35:31.856Z,17
2023-04-21T08:36:32.103Z,17.111111111111143
2023-04-21T08:37:31.108Z,17.27777777777783
2023-04-21T08:38:31.742Z,17.500000000000057
2023-04-21T08:39:31.761Z,17.500000000000057
2023-04-21T08:40:31.770Z,17.611111111111143
2023-04-21T08:41:31.126Z,17.500000000000057
2023-04-21T08:42:31.765Z,17.388888888888914
2023-04-21T08:43:31.791Z,17.388888888888914
2023-04-21T08:44:31.769Z,17.500000000000057
2023-04-21T08:45:31.145Z,17.222222222222285
2023-04-21T08:46:31.878Z,17
2023-04-21T08:47:31.910Z,17
2023-04-21T08:48:31.770Z,17.27777777777783
2023-04-21T08:49:31.159Z,17.500000000000057
2023-04-21T08:50:31.762Z,17.500000000000057
2023-04-21T08:51:31.781Z,17.611111111111143
2023-04-21T08:52:31.771Z,17.722222222222285
2023-04-21T08:53:31.125Z,17.77777777777783
2023-04-21T08:54:31.775Z,18.000000000000057
2023-04-21T08:55:31.770Z,18.111111111111143
2023-04-21T08:56:31.815Z,18.222222222222285
2023-04-21T08:57:31.051Z,18.27777777777783
2023-04-21T08:58:31.750Z,18.27777777777783
2023-04-21T08:59:31.789Z,18.500000000000057
2023-04-21T09:00:31.785Z,18.500000000000057
2023-04-21T09:01:31.154Z,18.222222222222285
2023-04-21T09:02:31.851Z,18.111111111111143
2023-04-21T09:03:31.994Z,18.111111111111143
2023-04-21T09:04:32.036Z,18.27777777777783
2023-04-21T09:05:31.260Z,18.27777777777783
2023-04-21T09:06:31.778Z,18.222222222222285
2023-04-21T09:07:31.762Z,17.888888888888914
2023-04-21T09:08:31.806Z,17.388888888888914
2023-04-21T09:09:31.089Z,17.388888888888914
2023-04-21T09:10:31.772Z,17.500000000000057
2023-04-21T09:11:31.799Z,17.722222222222285
2023-04-21T09:12:31.788Z,18.111111111111143
2023-04-21T09:13:31.798Z,18.222222222222285
2023-04-21T09:14:31.792Z,18.222222222222285